createdAt,value
2023-05-09T00:01:32.024Z,98802.59
2023-05-09T00:04:35.650Z,98799.97
2023-05-09T00:07:40.819Z,98801.72
2023-05-09T00:10:43.548Z,98803.38
2023-05-09T00:13:46.436Z,98800.06
2023-05-09T00:16:49.562Z,98797.00
2023-05-09T00:19:53.328Z,98797.84
2023-05-09T00:22:56.884Z,98800.22
2023-05-09T00:26:00.171Z,98795.25
2023-05-09T00:29:03.141Z,98782.50
2023-05-09T00:32:06.218Z,98785.41
2023-05-09T00:35:10.523Z,98782.47
2023-05-09T00:38:14.158Z,98781.63
2023-05-09T00:41:17.041Z,98784.16
2023-05-09T00:44:19.757Z,98782.69
2023-05-09T00:47:24.616Z,98780.41
2023-05-09T00:50:27.816Z,98775.69
2023-05-09T00:53:31.229Z,98771.41
2023-05-09T00:56:34.339Z,98778.78
2023-05-09T00:59:37.092Z,98767.28
2023-05-09T01:02:43.873Z,98771.97
2023-05-09T01:05:57.370Z,98769.00
2023-05-09T01:09:07.793Z,98769.00
2023-05-09T01:12:19.662Z,98761.38
2023-05-09T01:16:06.751Z,98767.91
2023-05-09T01:19:35.995Z,98766.63
2023-05-09T01:22:43.960Z,98764.38
2023-05-09T01:25:55.517Z,98769.94
2023-05-09T01:28:58.316Z,98769.38
2023-05-09T01:32:04.150Z,98771.28
2023-05-09T01:35:07.776Z,98773.34
2023-05-09T01:38:16.307Z,98765.06
2023-05-09T01:41:19.654Z,98765.53
2023-05-09T01:44:23.357Z,98766.81
2023-05-09T01:47:26.950Z,98767.28
2023-05-09T01:50:33.098Z,98769.03
2023-05-09T01:53:36.364Z,98767.41
2023-05-09T01:56:41.791Z,98762.94
2023-05-09T01:59:45.454Z,98769.38
2023-05-09T02:02:49.148Z,98766.84
2023-05-09T02:05:52.689Z,98765.38
2023-05-09T02:08:55.336Z,98769.84
2023-05-09T02:12:02.384Z,98770.78
2023-05-09T02:15:07.168Z,98769.81
2023-05-09T02:18:10.032Z,98765.75
2023-05-09T02:21:13.085Z,98767.59
2023-05-09T02:24:15.852Z,98758.31
2023-05-09T02:27:19.605Z,98761.00
2023-05-09T02:30:25.528Z,98761.50
2023-05-09T02:33:29.943Z,98761.09
2023-05-09T02:36:33.375Z,98757.97
2023-05-09T02:39:36.794Z,98758.88
2023-05-09T02:42:39.909Z,98772.75
2023-05-09T02:45:43.017Z,98755.38
2023-05-09T02:48:45.794Z,98755.34
2023-05-09T02:51:48.722Z,98764.66
2023-05-09T02:54:51.675Z,98771.16
2023-05-09T02:58:05.328Z,98768.72
2023-05-09T03:01:15.465Z,98759.06
2023-05-09T03:04:18.660Z,98769.09
2023-05-09T03:07:21.776Z,98769.28
2023-05-09T03:10:24.624Z,98768.41
2023-05-09T03:13:29.096Z,98766.28
2023-05-09T03:16:33.201Z,98774.06
2023-05-09T03:19:36.141Z,98770.53
2023-05-09T03:22:39.102Z,98768.34
2023-05-09T03:25:44.751Z,98768.06
2023-05-09T03:28:47.597Z,98772.63
2023-05-09T03:31:50.649Z,98762.41
2023-05-09T03:34:55.299Z,98774.41
2023-05-09T03:37:58.121Z,98776.63
2023-05-09T03:41:01.471Z,98772.25
2023-05-09T03:44:05.431Z,98760.56
2023-05-09T03:47:08.512Z,98769.09
2023-05-09T03:50:15.381Z,98775.03
2023-05-09T03:53:20.887Z,98777.16
2023-05-09T03:56:26.230Z,98778.69
2023-05-09T03:59:30.368Z,98776.09
2023-05-09T04:02:34.697Z,98780.50
2023-05-09T04:05:38.233Z,98782.25
2023-05-09T04:08:43.258Z,98785.09
2023-05-09T04:11:46.950Z,98778.22
2023-05-09T04:14:52.634Z,98773.97
2023-05-09T04:17:57.981Z,98771.44
2023-05-09T04:21:01.008Z,98767.03
2023-05-09T04:24:04.548Z,98765.03
2023-05-09T04:27:13.712Z,98769.38
2023-05-09T04:30:17.329Z,98769.69
2023-05-09T04:33:21.946Z,98770.53
2023-05-09T04:36:25.620Z,98773.41
2023-05-09T04:39:28.567Z,98777.16
2023-05-09T04:42:40.252Z,98780.78
2023-05-09T04:45:43.292Z,98774.59
2023-05-09T04:48:47.466Z,98785.22
2023-05-09T04:51:51.072Z,98780.41
2023-05-09T04:54:54.058Z,98785.13
2023-05-09T04:57:59.005Z,98784.28
2023-05-09T05:01:02.205Z,98781.28
2023-05-09T05:04:05.084Z,98778.59
2023-05-09T05:07:12.450Z,98783.13
2023-05-09T05:10:15.892Z,98778.94
2023-05-09T05:13:23.297Z,98779.28
2023-05-09T05:16:31.249Z,98775.72
2023-05-09T05:19:36.676Z,98773.28
2023-05-09T05:22:41.766Z,98771.34
2023-05-09T05:25:45.356Z,98776.59
2023-05-09T05:28:49.793Z,98772.19
2023-05-09T05:31:52.857Z,98771.34
2023-05-09T05:34:57.571Z,98773.03
2023-05-09T05:38:01.740Z,98772.19
2023-05-09T05:41:04.894Z,98769.28
2023-05-09T05:44:09.229Z,98769.19
2023-05-09T05:47:12.204Z,98772.88
2023-05-09T05:50:15.867Z,98765.66
2023-05-09T05:53:19.220Z,98774.75
2023-05-09T05:56:23.056Z,98778.94
2023-05-09T05:59:26.495Z,98773.72
2023-05-09T06:02:30.512Z,98771.69
2023-05-09T06:05:34.066Z,98774.22
2023-05-09T06:08:37.194Z,98778.00
2023-05-09T06:11:40.129Z,98772.03
2023-05-09T06:14:43.665Z,98768.88
2023-05-09T06:17:46.799Z,98752.69
2023-05-09T06:20:49.852Z,98761.47
2023-05-09T06:24:07.856Z,98759.00
2023-05-09T06:27:15.153Z,98756.84
2023-05-09T06:30:26.435Z,98762.56
2023-05-09T06:33:30.176Z,98755.88
2023-05-09T06:36:34.187Z,98757.25
2023-05-09T06:39:37.018Z,98758.59
2023-05-09T06:42:39.863Z,98758.19
2023-05-09T06:45:42.885Z,98756.25
2023-05-09T06:48:45.823Z,98758.94
2023-05-09T06:51:48.477Z,98759.00
2023-05-09T06:54:51.332Z,98755.69
2023-05-09T06:57:54.046Z,98756.59
2023-05-09T07:00:57.168Z,98750.06
2023-05-09T07:04:00.155Z,98754.41
2023-05-09T07:07:02.996Z,98752.31
2023-05-09T07:10:11.755Z,98740.03
2023-05-09T07:13:14.955Z,98745.81
2023-05-09T07:16:18.737Z,98741.63
2023-05-09T07:19:21.828Z,98738.66
2023-05-09T07:22:24.677Z,98739.00
2023-05-09T07:25:27.537Z,98741.09
2023-05-09T07:28:30.417Z,98740.13
2023-05-09T07:31:36.699Z,98739.25
2023-05-09T07:34:40.000Z,98734.13
2023-05-09T07:37:42.763Z,98730.59
2023-05-09T07:40:45.578Z,98721.78
2023-05-09T07:43:48.314Z,98724.78
2023-05-09T07:46:51.096Z,98716.41
2023-05-09T07:49:53.950Z,98709.84
2023-05-09T07:52:57.279Z,98724.47
2023-05-09T07:56:00.893Z,98725.44
2023-05-09T07:59:03.759Z,98728.50
2023-05-09T08:02:07.074Z,98726.94
2023-05-09T08:05:12.038Z,98720.69
2023-05-09T08:08:15.013Z,98713.72
2023-05-09T08:11:18.032Z,98713.81
2023-05-09T08:14:20.911Z,98702.94
2023-05-09T08:17:23.958Z,98701.38
2023-05-09T08:20:27.364Z,98696.19
2023-05-09T08:23:30.709Z,98689.63
2023-05-09T08:26:33.715Z,98691.38
2023-05-09T08:29:36.634Z,98692.78
2023-05-09T08:32:39.766Z,98689.19
2023-05-09T08:35:42.951Z,98691.84
2023-05-09T08:38:46.258Z,98687.53
2023-05-09T08:41:49.536Z,98688.44
2023-05-09T08:44:52.563Z,98695.47
2023-05-09T08:47:55.465Z,98685.53
2023-05-09T08:50:58.843Z,98686.50
2023-05-09T08:54:01.938Z,98682.28
2023-05-09T08:57:05.110Z,98689.25
2023-05-09T09:00:12.009Z,98682.56
2023-05-09T09:03:15.109Z,98681.47
2023-05-09T09:06:18.518Z,98672.28
2023-05-09T09:09:21.761Z,98669.97
2023-05-09T09:12:25.575Z,98673.97
2023-05-09T09:15:30.589Z,98666.53
2023-05-09T09:18:34.381Z,98662.41
2023-05-09T09:21:37.834Z,98658.56
2023-05-09T09:24:40.669Z,98662.41
2023-05-09T09:27:56.394Z,98660.19
2023-05-09T09:31:02.223Z,98664.81
2023-05-09T09:34:06.788Z,98659.25
2023-05-09T09:37:09.513Z,98664.03
2023-05-09T09:40:15.669Z,98661.84
2023-05-09T09:43:19.692Z,98656.75
2023-05-09T09:46:22.686Z,98659.66
2023-05-09T09:49:27.294Z,98650.50
2023-05-09T09:52:30.564Z,98653.22
2023-05-09T09:55:35.110Z,98649.25
2023-05-09T09:58:37.939Z,98633.63
2023-05-09T10:02:00.214Z,98641.34
2023-05-09T10:05:09.525Z,98641.88
2023-05-09T10:08:14.764Z,98638.38
2023-05-09T10:11:17.693Z,98636.97
2023-05-09T10:14:22.675Z,98635.25
2023-05-09T10:17:27.905Z,98622.22
2023-05-09T10:20:31.879Z,98614.03
2023-05-09T10:23:38.023Z,98616.13
2023-05-09T10:26:45.755Z,98620.47
2023-05-09T10:30:24.474Z,98615.22
2023-05-09T10:33:32.530Z,98606.91
2023-05-09T10:36:35.696Z,98622.78
2023-05-09T10:39:38.736Z,98620.16
2023-05-09T10:42:45.333Z,98613.72
2023-05-09T10:45:48.273Z,98602.78
2023-05-09T10:48:51.331Z,98603.41
2023-05-09T10:51:54.069Z,98599.13
2023-05-09T10:55:04.798Z,98602.63
2023-05-09T10:58:29.758Z,98601.88
2023-05-09T11:01:35.684Z,98595.69
2023-05-09T11:04:41.410Z,98585.63
2023-05-09T11:07:44.270Z,98580.97
2023-05-09T11:10:47.157Z,98585.00
2023-05-09T11:13:50.117Z,98580.22
2023-05-09T11:17:22.454Z,98578.22
2023-05-09T11:20:28.681Z,98587.44
2023-05-09T11:23:31.822Z,98582.53
2023-05-09T11:26:34.986Z,98562.25
2023-05-09T11:29:51.673Z,98561.03
2023-05-09T11:32:56.397Z,98558.88
2023-05-09T11:36:29.582Z,98554.31
2023-05-09T11:39:32.308Z,98557.66
2023-05-09T11:42:35.341Z,98550.16
2023-05-09T11:45:39.367Z,98540.75
2023-05-09T11:48:42.619Z,98551.72
2023-05-09T11:51:45.742Z,98546.25
2023-05-09T11:54:49.727Z,98529.53
2023-05-09T11:57:54.463Z,98538.41
2023-05-09T12:00:58.071Z,98537.41
2023-05-09T12:04:02.671Z,98536.69
2023-05-09T12:07:05.909Z,98531.03
2023-05-09T12:10:17.497Z,98535.16
2023-05-09T12:13:20.343Z,98538.72
2023-05-09T12:16:23.688Z,98530.19
2023-05-09T12:19:27.620Z,98529.94
2023-05-09T12:22:31.125Z,98521.44
2023-05-09T12:25:34.031Z,98517.56
2023-05-09T12:28:37.020Z,98507.34
2023-05-09T12:31:40.195Z,98509.50
2023-05-09T12:34:48.914Z,98514.03
2023-05-09T12:37:59.231Z,98501.16
2023-05-09T12:41:18.800Z,98497.19
2023-05-09T12:44:26.718Z,98494.94
2023-05-09T12:47:31.495Z,98492.59
2023-05-09T12:50:37.140Z,98484.81
2023-05-09T12:53:41.564Z,98474.56
2023-05-09T12:56:45.351Z,98475.53
2023-05-09T12:59:48.471Z,98482.97
2023-05-09T13:02:53.324Z,98482.22
2023-05-09T13:06:01.532Z,98480.13
2023-05-09T13:09:08.562Z,98481.59
2023-05-09T13:12:11.413Z,98477.09
2023-05-09T13:15:15.795Z,98470.56
2023-05-09T13:18:19.268Z,98474.09
2023-05-09T13:21:22.635Z,98468.31
2023-05-09T13:24:25.429Z,98469.16
2023-05-09T13:27:28.426Z,98453.84
2023-05-09T13:30:31.974Z,98456.28
2023-05-09T13:33:35.044Z,98448.41
2023-05-09T13:36:38.174Z,98444.00
2023-05-09T13:39:41.034Z,98435.00
2023-05-09T13:42:43.794Z,98443.03
2023-05-09T13:45:46.722Z,98430.78
2023-05-09T13:48:49.548Z,98428.75
2023-05-09T13:51:52.549Z,98425.69
2023-05-09T13:54:55.479Z,98420.97
2023-05-09T13:57:58.204Z,98417.03
2023-05-09T14:01:01.301Z,98412.31
2023-05-09T14:04:04.682Z,98410.88
2023-05-09T14:07:07.434Z,98415.97
2023-05-09T14:10:11.732Z,98401.00
2023-05-09T14:13:16.090Z,98401.47
2023-05-09T14:16:22.594Z,98404.88
2023-05-09T14:19:27.535Z,98396.97
2023-05-09T14:22:30.674Z,98396.81
2023-05-09T14:25:33.661Z,98399.06
2023-05-09T14:28:37.782Z,98385.69
2023-05-09T14:31:40.827Z,98399.75
2023-05-09T14:34:43.722Z,98396.13
2023-05-09T14:37:46.838Z,98396.63
2023-05-09T14:40:49.926Z,98400.06
2023-05-09T14:43:52.976Z,98393.88
2023-05-09T14:46:55.926Z,98383.03
2023-05-09T14:49:58.956Z,98379.50
2023-05-09T14:53:02.400Z,98376.38
2023-05-09T14:56:05.918Z,98372.81
2023-05-09T14:59:10.061Z,98374.59
2023-05-09T15:02:13.063Z,98370.69
2023-05-09T15:05:17.302Z,98377.25
2023-05-09T15:08:20.339Z,98376.69
2023-05-09T15:11:24.036Z,98364.91
2023-05-09T15:14:28.143Z,98359.78
2023-05-09T15:17:31.028Z,98356.91
2023-05-09T15:20:34.159Z,98353.06
2023-05-09T15:23:37.181Z,98358.59
2023-05-09T15:26:40.086Z,98361.63
2023-05-09T15:29:44.866Z,98349.53
2023-05-09T15:32:47.738Z,98351.19
2023-05-09T15:35:50.595Z,98346.22
2023-05-09T15:38:53.719Z,98345.91
2023-05-09T15:41:56.652Z,98347.50
2023-05-09T15:44:59.663Z,98344.81
2023-05-09T15:48:02.624Z,98341.34
2023-05-09T15:51:05.875Z,98332.53
2023-05-09T15:54:09.113Z,98330.00
2023-05-09T15:57:13.199Z,98329.44
2023-05-09T16:00:18.062Z,98330.19
2023-05-09T16:03:21.097Z,98328.53
2023-05-09T16:06:24.002Z,98325.63
2023-05-09T16:09:27.223Z,98320.31
2023-05-09T16:12:32.984Z,98315.63
2023-05-09T16:15:35.964Z,98313.97
2023-05-09T16:18:39.207Z,98308.44
2023-05-09T16:21:42.285Z,98314.41
2023-05-09T16:24:45.693Z,98316.03
2023-05-09T16:27:48.499Z,98307.06
2023-05-09T16:30:54.228Z,98303.97
2023-05-09T16:33:57.459Z,98301.31
2023-05-09T16:37:00.626Z,98302.59
2023-05-09T16:40:04.869Z,98300.22
2023-05-09T16:43:07.790Z,98301.16
2023-05-09T16:46:10.977Z,98299.31
2023-05-09T16:49:17.833Z,98291.44
2023-05-09T16:52:21.036Z,98292.59
2023-05-09T16:55:24.077Z,98296.97
2023-05-09T16:58:27.081Z,98292.19
2023-05-09T17:01:30.228Z,98292.09
2023-05-09T17:04:40.890Z,98293.00
2023-05-09T17:07:44.035Z,98277.66
2023-05-09T17:10:47.458Z,98279.59
2023-05-09T17:13:51.016Z,98286.81
2023-05-09T17:16:54.330Z,98286.00
2023-05-09T17:19:58.423Z,98280.19
2023-05-09T17:23:01.449Z,98279.28
2023-05-09T17:26:04.286Z,98281.31
2023-05-09T17:29:07.230Z,98273.28
2023-05-09T17:32:10.685Z,98271.22
2023-05-09T17:35:14.474Z,98278.69
2023-05-09T17:38:17.768Z,98276.91
2023-05-09T17:41:20.886Z,98274.31
2023-05-09T17:44:24.390Z,98271.25
2023-05-09T17:47:27.971Z,98273.53
2023-05-09T17:50:32.613Z,98277.75
2023-05-09T17:53:36.234Z,98274.56
2023-05-09T17:56:39.353Z,98269.69
2023-05-09T17:59:42.503Z,98262.63
2023-05-09T18:02:45.765Z,98266.13
2023-05-09T18:05:49.218Z,98266.13
2023-05-09T18:08:52.385Z,98266.50
2023-05-09T18:11:55.457Z,98269.81
2023-05-09T18:14:58.753Z,98272.78
2023-05-09T18:18:02.169Z,98264.56
2023-05-09T18:21:05.879Z,98257.63
2023-05-09T18:24:09.692Z,98265.22
2023-05-09T18:27:17.779Z,98275.09
2023-05-09T18:30:22.414Z,98278.06
2023-05-09T18:33:27.174Z,98269.81
2023-05-09T18:36:30.864Z,98280.31
2023-05-09T18:39:34.467Z,98277.69
2023-05-09T18:42:37.525Z,98287.97
2023-05-09T18:45:45.549Z,98286.25
2023-05-09T18:48:52.556Z,98284.88
2023-05-09T18:51:57.010Z,98285.00
2023-05-09T18:55:00.332Z,98289.75
2023-05-09T18:58:03.266Z,98291.56
2023-05-09T19:01:06.430Z,98295.25
2023-05-09T19:04:09.973Z,98290.91
2023-05-09T19:07:16.675Z,98297.34
2023-05-09T19:10:19.545Z,98300.72
2023-05-09T19:13:29.891Z,98298.19
2023-05-09T19:16:33.130Z,98294.59
2023-05-09T19:19:38.097Z,98296.03
2023-05-09T19:26:06.691Z,98291.53
2023-05-09T19:29:11.099Z,98301.66
2023-05-09T19:32:23.382Z,98300.91
2023-05-09T19:35:27.099Z,98306.06
2023-05-09T19:38:31.660Z,98294.66
2023-05-09T19:41:34.873Z,98291.28
2023-05-09T19:44:37.758Z,98299.53
2023-05-09T19:47:40.854Z,98298.41
2023-05-09T19:50:44.545Z,98299.06
2023-05-09T19:53:47.526Z,98298.53
2023-05-09T19:56:50.776Z,98299.88
2023-05-09T19:59:55.032Z,98292.00
2023-05-09T20:02:58.097Z,98299.69
2023-05-09T20:09:21.640Z,98299.50
2023-05-09T20:12:24.290Z,98293.19
2023-05-09T20:15:27.425Z,98297.44
2023-05-09T20:18:34.826Z,98302.03
2023-05-09T20:21:37.932Z,98297.38
2023-05-09T20:24:41.618Z,98296.00
2023-05-09T20:27:44.469Z,98295.47
2023-05-09T20:30:47.826Z,98296.88
2023-05-09T20:33:51.649Z,98294.41
2023-05-09T20:36:55.239Z,98294.06
2023-05-09T20:39:57.971Z,98295.88
2023-05-09T20:43:00.888Z,98290.03
2023-05-09T20:46:03.776Z,98283.81
2023-05-09T20:49:08.006Z,98292.53
2023-05-09T20:52:11.205Z,98289.78
2023-05-09T20:55:14.230Z,98280.94
2023-05-09T20:58:17.301Z,98282.47
2023-05-09T21:01:19.984Z,98278.75
2023-05-09T21:04:23.613Z,98280.94
2023-05-09T21:07:26.827Z,98271.00
2023-05-09T21:10:29.685Z,98264.41
2023-05-09T21:13:32.556Z,98260.53
2023-05-09T21:16:35.518Z,98255.00
2023-05-09T21:19:38.277Z,98252.41
2023-05-09T21:22:41.121Z,98253.78
2023-05-09T21:25:44.123Z,98254.75
2023-05-09T21:28:47.090Z,98251.47
2023-05-09T21:31:49.765Z,98246.34
2023-05-09T21:34:52.672Z,98243.44
2023-05-09T21:37:55.380Z,98247.03
2023-05-09T21:40:58.727Z,98245.25
2023-05-09T21:44:02.179Z,98240.41
2023-05-09T21:47:07.388Z,98242.91
2023-05-09T21:50:10.939Z,98246.50
2023-05-09T21:53:14.057Z,98232.97
2023-05-09T21:56:16.853Z,98239.28
2023-05-09T21:59:21.384Z,98234.47
2023-05-09T22:02:24.313Z,98238.75
2023-05-09T22:05:27.213Z,98237.66
2023-05-09T22:08:30.338Z,98234.88
2023-05-09T22:11:34.051Z,98233.50
2023-05-09T22:14:45.141Z,98230.88
2023-05-09T22:17:51.443Z,98228.69
2023-05-09T22:20:54.131Z,98227.00
2023-05-09T22:23:56.765Z,98236.13
2023-05-09T22:26:59.602Z,98217.50
2023-05-09T22:30:03.676Z,98216.25
2023-05-09T22:33:06.608Z,98213.34
2023-05-09T22:36:09.656Z,98220.66
2023-05-09T22:39:12.443Z,98216.09
2023-05-09T22:42:15.289Z,98215.56
2023-05-09T22:45:18.104Z,98217.31
2023-05-09T22:48:20.866Z,98217.16
2023-05-09T22:51:24.206Z,98216.50
2023-05-09T22:54:27.440Z,98217.72
2023-05-09T22:57:30.489Z,98219.81
2023-05-09T23:00:33.462Z,98212.53
2023-05-09T23:03:36.971Z,98213.25
2023-05-09T23:06:39.774Z,98193.25
2023-05-09T23:09:42.398Z,98195.28
2023-05-09T23:12:45.150Z,98203.16
2023-05-09T23:15:48.838Z,98194.63
2023-05-09T23:18:54.362Z,98191.28
2023-05-09T23:21:59.268Z,98184.53
2023-05-09T23:25:01.972Z,98174.31
2023-05-09T23:28:04.986Z,98176.78
2023-05-09T23:31:07.715Z,98181.03
2023-05-09T23:34:10.535Z,98172.91
2023-05-09T23:37:13.429Z,98176.09
2023-05-09T23:40:16.542Z,98170.56
2023-05-09T23:43:19.829Z,98162.03
2023-05-09T23:46:22.996Z,98160.66
2023-05-09T23:49:25.893Z,98166.31
2023-05-09T23:52:28.768Z,98156.38
2023-05-09T23:55:31.722Z,98157.84
2023-05-09T23:58:34.460Z,98152.00
